Time;durP1;ratioP1;P1;durP2;ratioP2;P2;SDS_P1;SDS_P2;PMS_P1;PMS_P2;Temp;Humidity;BMP_temperature;BMP_pressure;BME280_temperature;BME280_humidity;BME280_pressure;Samples;Min_cycle;Max_cycle;Signal;HPM_P1;HPM_P2
2024/02/10 00:02:17;;;;;;;;;;;;;;;1.68;100.00;98063.23;109589;1251;60100;-71
2024/02/10 00:04:46;;;;;;;;;;;;;;;1.70;100.00;98060.79;109555;1251;76389;-71
2024/02/10 00:07:16;;;;;;;;;;;;;;;1.63;100.00;98059.38;109561;1251;67924;-72
2024/02/10 00:09:46;;;;;;;;;;;;;;;1.65;100.00;98055.56;109559;1251;71205;-72
2024/02/10 00:12:13;;;;;;;;;;;;;;;1.71;100.00;98055.94;109550;1251;60904;-72
2024/02/10 00:14:43;;;;;;;;;;;;;;;1.71;100.00;98055.36;109354;1251;60896;-72
2024/02/10 00:17:11;;;;;;;;;;;;;;;1.78;100.00;98053.08;109566;1251;74678;-72
2024/02/10 00:19:46;;;;;;;;;;;;;;;1.78;100.00;98056.85;109185;1251;69314;-72
2024/02/10 00:22:16;;;;;;;;;;;;;;;1.86;100.00;98057.95;109588;1251;73360;-72
2024/02/10 00:24:44;;;;;;;;;;;;;;;1.89;100.00;98061.81;109568;1253;60488;-73
2024/02/10 00:27:16;;;;;;;;;;;;;;;1.86;100.00;98061.02;109528;1253;58855;-72
2024/02/10 00:29:45;;;;;;;;;;;;;;;1.93;100.00;98060.79;109580;1251;76534;-72
2024/02/10 00:32:12;;;;;;;;;;;;;;;1.86;100.00;98057.26;109613;1251;68493;-72
2024/02/10 00:34:41;;;;;;;;;;;;;;;1.82;100.00;98053.48;109562;1251;70597;-72
2024/02/10 00:37:09;;;;;;;;;;;;;;;1.81;100.00;98050.70;109578;1251;61862;-72
2024/02/10 00:39:36;;;;;;;;;;;;;;;1.84;100.00;98046.91;109570;1251;59043;-72
2024/02/10 00:42:04;;;;;;;;;;;;;;;1.70;100.00;98033.70;109537;1251;73962;-72
2024/02/10 00:44:31;;;;;;;;;;;;;;;1.69;100.00;98036.44;109440;1254;67142;-72
2024/02/10 00:47:09;;;;;;;;;;;;;;;1.54;100.00;98029.52;109290;1254;73635;-72
2024/02/10 00:49:36;;;;;;;;;;;;;;;1.42;100.00;98041.00;109282;1254;60929;-72
2024/02/10 00:52:05;;;;;;;;;;;;;;;1.45;100.00;98037.94;109308;1254;60520;-72
2024/02/10 00:54:32;;;;;;;;;;;;;;;1.56;100.00;98031.77;109290;1254;73823;-72
2024/02/10 00:57:00;;;;;;;;;;;;;;;1.63;100.00;98035.21;109273;1254;66492;-72
2024/02/10 00:59:28;;;;;;;;;;;;;;;1.59;100.00;98033.16;109258;1254;74059;-72
2024/02/10 01:01:56;;;;;;;;;;;;;;;1.58;100.00;98028.63;109053;1254;59710;-71
2024/02/10 01:04:27;;;;;;;;;;;;;;;1.54;100.00;98025.53;109403;1254;61169;-72
2024/02/10 01:06:55;;;;;;;;;;;;;;;1.68;100.00;98024.45;109285;1254;76576;-72
2024/02/10 01:09:23;;;;;;;;;;;;;;;1.61;100.00;98021.21;109299;1256;68582;-71
2024/02/10 01:11:50;;;;;;;;;;;;;;;1.71;100.00;98027.86;109312;1254;71878;-71
2024/02/10 01:14:18;;;;;;;;;;;;;;;1.84;100.00;98029.55;109204;1256;61960;-71
2024/02/10 01:16:45;;;;;;;;;;;;;;;1.92;100.00;98029.13;109422;1253;59945;-72
2024/02/10 01:19:13;;;;;;;;;;;;;;;1.92;100.00;98026.17;109576;1253;76950;-72
2024/02/10 01:21:41;;;;;;;;;;;;;;;1.85;100.00;98026.71;109537;1253;69925;-72
2024/02/10 01:24:08;;;;;;;;;;;;;;;1.85;100.00;98027.71;109531;1253;73770;-72
2024/02/10 01:26:36;;;;;;;;;;;;;;;1.88;100.00;98024.45;109237;1254;60932;-73
2024/02/10 01:29:08;;;;;;;;;;;;;;;1.91;100.00;98028.88;109441;1252;60895;-72
2024/02/10 01:31:35;;;;;;;;;;;;;;;1.99;100.00;98030.35;109551;1253;74473;-72
2024/02/10 01:34:03;;;;;;;;;;;;;;;1.91;100.00;98029.16;109543;1253;68161;-72
2024/02/10 01:36:33;;;;;;;;;;;;;;;1.96;100.00;98029.30;109536;1253;72671;-72
2024/02/10 01:39:01;;;;;;;;;;;;;;;1.93;100.00;98037.02;109421;1254;59499;-72
2024/02/10 01:41:28;;;;;;;;;;;;;;;1.91;100.00;98027.20;109542;1253;59066;-72
2024/02/10 01:43:56;;;;;;;;;;;;;;;1.91;100.00;98031.31;109531;1253;73333;-72
2024/02/10 01:46:23;;;;;;;;;;;;;;;1.97;100.00;98030.33;109508;1253;69051;-71
2024/02/10 01:48:51;;;;;;;;;;;;;;;2.05;100.00;98022.55;109366;1253;72653;-71
2024/02/10 01:51:19;;;;;;;;;;;;;;;1.90;100.00;98013.84;109105;1256;60919;-72
2024/02/10 01:53:47;;;;;;;;;;;;;;;1.94;100.00;98010.75;109132;1256;60127;-72
2024/02/10 01:56:17;;;;;;;;;;;;;;;1.83;100.00;98006.56;109141;1256;73611;-72
2024/02/10 01:58:45;;;;;;;;;;;;;;;1.80;100.00;98003.16;109114;1256;67729;-71
2024/02/10 02:01:16;;;;;;;;;;;;;;;1.89;100.00;98011.86;108941;1256;72701;-71
2024/02/10 02:03:43;;;;;;;;;;;;;;;1.97;100.00;98016.98;109097;1256;59176;-71
2024/02/10 02:06:17;;;;;;;;;;;;;;;2.06;100.00;98016.96;109120;1256;59773;-71
2024/02/10 02:08:47;;;;;;;;;;;;;;;2.00;100.00;98017.68;109048;1259;74774;-71
2024/02/10 02:11:15;;;;;;;;;;;;;;;1.95;100.00;98018.17;109000;1259;70252;-72
2024/02/10 02:13:43;;;;;;;;;;;;;;;1.92;100.00;98016.15;108988;1258;71636;-72
2024/02/10 02:16:11;;;;;;;;;;;;;;;2.01;100.00;98014.63;108971;1259;59340;-72
2024/02/10 02:18:43;;;;;;;;;;;;;;;2.03;100.00;98017.95;109004;1260;60748;-72
2024/02/10 02:21:11;;;;;;;;;;;;;;;2.09;100.00;98018.21;109036;1258;77077;-72
2024/02/10 02:23:39;;;;;;;;;;;;;;;2.19;100.00;98022.38;109303;1254;69262;-72
2024/02/10 02:26:07;;;;;;;;;;;;;;;2.17;100.00;98016.48;109285;1254;70976;-73
2024/02/10 02:28:35;;;;;;;;;;;;;;;2.15;100.00;98014.48;109274;1256;63197;-73
2024/02/10 02:31:03;;;;;;;;;;;;;;;2.10;100.00;98016.96;109372;1254;60610;-72
2024/02/10 02:33:32;;;;;;;;;;;;;;;2.16;100.00;98016.23;109370;1254;74683;-72
2024/02/10 02:36:00;;;;;;;;;;;;;;;2.02;100.00;98013.17;109358;1254;69915;-73
2024/02/10 02:38:28;;;;;;;;;;;;;;;1.88;100.00;98009.04;109342;1254;72573;-72
2024/02/10 02:40:55;;;;;;;;;;;;;;;1.95;100.00;98014.58;109451;1253;59532;-72
2024/02/10 02:43:23;;;;;;;;;;;;;;;2.05;100.00;98016.34;109554;1253;60524;-72
2024/02/10 02:45:50;;;;;;;;;;;;;;;2.13;100.00;98020.80;109565;1252;73251;-72
2024/02/10 02:48:18;;;;;;;;;;;;;;;2.07;100.00;98016.83;109569;1253;70176;-72
2024/02/10 02:50:46;;;;;;;;;;;;;;;2.08;100.00;98014.44;109425;1253;72825;-73
2024/02/10 02:53:15;;;;;;;;;;;;;;;2.04;100.00;98013.10;109429;1254;59690;-73
2024/02/10 02:55:45;;;;;;;;;;;;;;;2.17;100.00;98007.94;109429;1253;58960;-72
2024/02/10 02:58:14;;;;;;;;;;;;;;;2.05;100.00;98006.88;109259;1253;73596;-72
2024/02/10 03:00:41;;;;;;;;;;;;;;;2.08;100.00;98003.27;109225;1253;67668;-72
2024/02/10 03:03:09;;;;;;;;;;;;;;;2.04;100.00;97994.63;109413;1253;74894;-72
2024/02/10 03:05:40;;;;;;;;;;;;;;;2.06;100.00;97999.27;109415;1256;61964;-72
2024/02/10 03:08:08;;;;;;;;;;;;;;;1.90;100.00;97998.92;109450;1253;59347;-72
2024/02/10 03:10:35;;;;;;;;;;;;;;;1.60;100.00;98000.27;109296;1252;76848;-73
2024/02/10 03:13:03;;;;;;;;;;;;;;;1.64;100.00;98001.95;109609;1251;71054;-73
2024/02/10 03:15:37;;;;;;;;;;;;;;;1.88;100.00;98005.91;109606;1251;72685;-73
2024/02/10 03:18:05;;;;;;;;;;;;;;;2.17;100.00;98018.41;109601;1253;59365;-72
2024/02/10 03:20:35;;;;;;;;;;;;;;;2.15;100.00;98030.89;109659;1251;58864;-72
2024/02/10 03:23:02;;;;;;;;;;;;;;;2.00;100.00;98032.77;109567;1257;75096;-73
2024/02/10 03:25:31;;;;;;;;;;;;;;;2.09;100.00;98030.63;109411;1251;68333;-72
2024/02/10 03:28:02;;;;;;;;;;;;;;;1.89;100.00;98026.64;109563;1251;73061;-72
2024/02/10 03:30:30;;;;;;;;;;;;;;;2.21;100.00;98027.34;109627;1252;61377;-72
2024/02/10 03:33:01;;;;;;;;;;;;;;;2.36;100.00;98029.14;109635;1251;59978;-72
2024/02/10 03:35:32;;;;;;;;;;;;;;;2.24;100.00;98026.59;109643;1251;74559;-71
2024/02/10 03:38:00;;;;;;;;;;;;;;;2.24;100.00;98033.85;109651;1251;69419;-71
2024/02/10 03:40:29;;;;;;;;;;;;;;;2.26;100.00;98035.44;109593;1251;74802;-71
2024/02/10 03:42:56;;;;;;;;;;;;;;;2.12;100.00;98031.04;109622;1251;60264;-71
2024/02/10 03:45:30;;;;;;;;;;;;;;;2.12;100.00;98034.96;109576;1251;59738;-71
2024/02/10 03:48:02;;;;;;;;;;;;;;;2.21;100.00;98036.98;109609;1253;73218;-71
2024/02/10 03:50:30;;;;;;;;;;;;;;;2.33;100.00;98031.41;109506;1252;67180;-71
2024/02/10 03:52:58;;;;;;;;;;;;;;;2.23;100.00;98026.59;109491;1253;71178;-71
2024/02/10 03:55:25;;;;;;;;;;;;;;;2.19;100.00;98025.65;109273;1257;59740;-71
2024/02/10 03:57:53;;;;;;;;;;;;;;;2.20;100.00;98026.16;109467;1252;59386;-71
2024/02/10 04:00:25;;;;;;;;;;;;;;;2.20;100.00;98020.50;109468;1253;74609;-71
2024/02/10 04:02:52;;;;;;;;;;;;;;;2.20;100.00;98022.13;109490;1254;69550;-71
2024/02/10 04:05:20;;;;;;;;;;;;;;;2.17;100.00;98021.92;109483;1253;73475;-71
2024/02/10 04:07:52;;;;;;;;;;;;;;;2.10;100.00;98017.73;109465;1254;61973;-71
2024/02/10 04:10:20;;;;;;;;;;;;;;;2.10;100.00;98014.92;109488;1254;59937;-71
2024/02/10 04:12:48;;;;;;;;;;;;;;;2.19;100.00;98017.40;109586;1253;74696;-71
2024/02/10 04:15:15;;;;;;;;;;;;;;;2.19;100.00;98011.27;109248;1252;67970;-71
2024/02/10 04:17:48;;;;;;;;;;;;;;;2.39;100.00;98011.88;109570;1253;71659;-71
2024/02/10 04:20:19;;;;;;;;;;;;;;;2.32;100.00;98012.45;109479;1257;63438;-71
2024/02/10 04:22:47;;;;;;;;;;;;;;;2.43;100.00;98016.86;109588;1254;58930;-71
2024/02/10 04:25:15;;;;;;;;;;;;;;;2.28;100.00;98019.68;109573;1252;75914;-71
2024/02/10 04:27:42;;;;;;;;;;;;;;;2.29;100.00;98021.55;109587;1253;69297;-71
2024/02/10 04:30:10;;;;;;;;;;;;;;;2.24;100.00;98019.60;109571;1253;70638;-71
2024/02/10 04:32:46;;;;;;;;;;;;;;;2.31;100.00;98028.27;109529;1253;61299;-71
2024/02/10 04:35:14;;;;;;;;;;;;;;;2.18;100.00;98023.52;109458;1254;60397;-71
2024/02/10 04:37:55;;;;;;;;;;;;;;;2.20;100.00;98021.60;109489;1252;76943;-71
2024/02/10 04:40:26;;;;;;;;;;;;;;;2.25;100.00;98020.47;109347;1252;69227;-72
2024/02/10 04:42:54;;;;;;;;;;;;;;;2.15;100.00;98022.10;109261;1252;72721;-71
2024/02/10 04:45:25;;;;;;;;;;;;;;;2.26;100.00;98028.07;109550;1253;59969;-71
2024/02/10 04:47:53;;;;;;;;;;;;;;;2.23;100.00;98023.20;109619;1251;60948;-71
2024/02/10 04:50:20;;;;;;;;;;;;;;;2.23;100.00;98030.67;109578;1251;72752;-71
2024/02/10 04:52:48;;;;;;;;;;;;;;;2.29;100.00;98031.73;109579;1251;71082;-71
2024/02/10 04:55:15;;;;;;;;;;;;;;;2.24;100.00;98026.98;109648;1251;72563;-71
2024/02/10 04:57:43;;;;;;;;;;;;;;;2.16;100.00;98031.16;109630;1251;60050;-71
2024/02/10 05:00:15;;;;;;;;;;;;;;;2.20;100.00;98041.55;109262;1255;59816;-71
2024/02/10 05:02:43;;;;;;;;;;;;;;;2.31;100.00;98038.17;109246;1256;75555;-71
2024/02/10 05:05:11;;;;;;;;;;;;;;;2.26;100.00;98036.86;109208;1256;69042;-72
2024/02/10 05:07:45;;;;;;;;;;;;;;;2.23;100.00;98039.66;109186;1256;71610;-71
2024/02/10 05:10:14;;;;;;;;;;;;;;;2.29;100.00;98035.05;109184;1256;61217;-71
2024/02/10 05:12:46;;;;;;;;;;;;;;;2.31;100.00;98025.45;108982;1256;59690;-71
2024/02/10 05:15:21;;;;;;;;;;;;;;;2.29;100.00;98027.70;109112;1256;76954;-72
2024/02/10 05:17:49;;;;;;;;;;;;;;;2.20;100.00;98033.69;109110;1256;67047;-72
2024/02/10 05:20:19;;;;;;;;;;;;;;;2.10;100.00;98040.42;109053;1256;138499;-73
2024/02/10 05:22:51;;;;;;;;;;;;;;;2.16;100.00;98044.77;109098;1259;61987;-72
2024/02/10 05:25:19;;;;;;;;;;;;;;;2.26;100.00;98053.42;109120;1256;58974;-72
2024/02/10 05:27:47;;;;;;;;;;;;;;;2.25;100.00;98050.56;109125;1256;76756;-72
2024/02/10 05:30:23;;;;;;;;;;;;;;;2.18;100.00;98047.52;109152;1256;69377;-72
2024/02/10 05:32:51;;;;;;;;;;;;;;;2.27;100.00;98052.39;109178;1256;74356;-72
2024/02/10 05:35:19;;;;;;;;;;;;;;;2.31;100.00;98046.85;109084;1261;61106;-72
2024/02/10 05:37:59;;;;;;;;;;;;;;;2.29;100.00;98047.39;109097;1257;60782;-71
2024/02/10 05:40:27;;;;;;;;;;;;;;;2.32;100.00;98050.16;109135;1256;75047;-72
2024/02/10 05:42:59;;;;;;;;;;;;;;;2.30;100.00;98049.69;109133;1256;68642;-72
2024/02/10 05:45:28;;;;;;;;;;;;;;;2.27;100.00;98052.89;108935;1260;72199;-72
2024/02/10 05:47:56;;;;;;;;;;;;;;;2.34;100.00;98054.52;109086;1256;60408;-72
2024/02/10 05:50:24;;;;;;;;;;;;;;;2.38;100.00;98058.20;109201;1256;60931;-72
2024/02/10 05:52:52;;;;;;;;;;;;;;;2.33;100.00;98062.45;109165;1257;73219;-73
2024/02/10 05:55:25;;;;;;;;;;;;;;;2.22;100.00;98062.31;109273;1255;69140;-72
2024/02/10 05:57:58;;;;;;;;;;;;;;;2.36;100.00;98062.67;109414;1254;71405;-73
2024/02/10 06:00:26;;;;;;;;;;;;;;;2.34;100.00;98059.94;109234;1257;61272;-72
2024/02/10 06:02:55;;;;;;;;;;;;;;;2.35;100.00;98060.17;109261;1256;60410;-73
2024/02/10 06:05:23;;;;;;;;;;;;;;;2.50;100.00;98055.68;109290;1254;74388;-71
2024/02/10 06:07:56;;;;;;;;;;;;;;;2.57;100.00;98056.59;109272;1254;68617;-72
2024/02/10 06:10:25;;;;;;;;;;;;;;;2.59;100.00;98050.42;109191;1256;74190;-73
2024/02/10 06:12:53;;;;;;;;;;;;;;;2.62;100.00;98049.99;109220;1256;60728;-73
2024/02/10 06:15:23;;;;;;;;;;;;;;;2.55;100.00;98049.45;109014;1257;60312;-74
2024/02/10 06:17:54;;;;;;;;;;;;;;;2.63;100.00;98053.67;109222;1256;77552;-73
2024/02/10 06:20:24;;;;;;;;;;;;;;;2.65;100.00;98055.27;109191;1255;68110;-73
2024/02/10 06:22:53;;;;;;;;;;;;;;;2.63;100.00;98055.56;109188;1256;73305;-73
2024/02/10 06:25:27;;;;;;;;;;;;;;;2.63;100.00;98053.84;109220;1256;62651;-76
2024/02/10 06:27:56;;;;;;;;;;;;;;;2.69;100.00;98052.61;109021;1256;61280;-73
2024/02/10 06:30:28;;;;;;;;;;;;;;;2.75;100.00;98061.45;109198;1257;74446;-73
2024/02/10 06:32:56;;;;;;;;;;;;;;;2.88;100.00;98064.20;109206;1256;68641;-73
2024/02/10 06:35:23;;;;;;;;;;;;;;;2.84;100.00;98064.09;109330;1251;73260;-74
2024/02/10 06:37:51;;;;;;;;;;;;;;;2.83;100.00;98061.31;109645;1253;61958;-73
2024/02/10 06:40:18;;;;;;;;;;;;;;;2.89;100.00;98062.63;109414;1254;59859;-74
2024/02/10 06:42:48;;;;;;;;;;;;;;;2.91;100.00;98065.48;109265;1254;75224;-73
2024/02/10 06:45:20;;;;;;;;;;;;;;;2.89;100.00;98065.49;109287;1254;69319;-74
2024/02/10 06:47:51;;;;;;;;;;;;;;;2.79;100.00;98067.14;109275;1254;70607;-72
2024/02/10 06:50:24;;;;;;;;;;;;;;;2.77;100.00;98072.20;109117;1254;60420;-74
2024/02/10 06:52:53;;;;;;;;;;;;;;;2.74;100.00;98074.14;109275;1257;61983;-73
2024/02/10 06:55:26;;;;;;;;;;;;;;;2.94;100.00;98081.32;109277;1254;76896;-73
2024/02/10 06:57:55;;;;;;;;;;;;;;;2.86;100.00;98080.50;109268;1254;69787;-73
2024/02/10 07:00:23;;;;;;;;;;;;;;;2.75;100.00;98080.73;109250;1254;71217;-73
2024/02/10 07:02:53;;;;;;;;;;;;;;;2.86;100.00;98086.63;109212;1257;61954;-73
2024/02/10 07:05:22;;;;;;;;;;;;;;;2.87;100.00;98088.83;109285;1255;59717;-73
2024/02/10 07:07:50;;;;;;;;;;;;;;;2.86;100.00;98087.27;109265;1254;76171;-73
2024/02/10 07:10:19;;;;;;;;;;;;;;;2.79;100.00;98082.34;109280;1254;67783;-71
2024/02/10 07:12:47;;;;;;;;;;;;;;;2.77;100.00;98084.34;109566;1251;73618;-72
2024/02/10 07:15:17;;;;;;;;;;;;;;;2.81;100.00;98080.22;109640;1256;61961;-73
2024/02/10 07:17:46;;;;;;;;;;;;;;;2.89;100.00;98073.82;109668;1251;59100;-74
2024/02/10 07:20:18;;;;;;;;;;;;;;;2.76;100.00;98074.30;109672;1251;75125;-73
2024/02/10 07:22:57;;;;;;;;;;;;;;;2.90;100.00;98079.29;109599;1251;71190;-74
2024/02/10 07:25:28;;;;;;;;;;;;;;;2.96;100.00;98084.21;109610;1251;73157;-74
2024/02/10 07:28:00;;;;;;;;;;;;;;;3.05;100.00;98081.45;109445;1252;62257;-74
2024/02/10 07:30:29;;;;;;;;;;;;;;;2.91;100.00;98089.21;109265;1251;60860;-74
2024/02/10 07:33:03;;;;;;;;;;;;;;;2.96;100.00;98098.31;109662;1251;74761;-74
2024/02/10 07:35:32;;;;;;;;;;;;;;;3.14;100.00;98113.30;109635;1251;71095;-73
2024/02/10 07:38:00;;;;;;;;;;;;;;;3.15;100.00;98118.98;109616;1251;74897;-74
2024/02/10 07:40:28;;;;;;;;;;;;;;;3.15;100.00;98118.56;109622;1252;63108;-76
2024/02/10 07:42:56;;;;;;;;;;;;;;;3.10;100.00;98118.97;109407;1254;59038;-76
2024/02/10 07:45:23;;;;;;;;;;;;;;;3.06;100.00;98121.80;109413;1254;74696;-77
2024/02/10 07:47:50;;;;;;;;;;;;;;;3.11;100.00;98119.73;109375;1254;67823;-75
2024/02/10 07:50:20;;;;;;;;;;;;;;;3.20;100.00;98125.85;109199;1254;73576;-77
2024/02/10 07:52:49;;;;;;;;;;;;;;;3.23;100.00;98123.67;109435;1254;60831;-75
2024/02/10 07:55:16;;;;;;;;;;;;;;;3.29;100.00;98127.69;109355;1254;59102;-74
2024/02/10 07:57:44;;;;;;;;;;;;;;;3.34;100.00;98129.00;109380;1254;75200;-75
2024/02/10 08:00:16;;;;;;;;;;;;;;;3.26;100.00;98126.48;109360;1254;67895;-76
2024/02/10 08:02:43;;;;;;;;;;;;;;;3.36;100.00;98123.40;109356;1254;72018;-74
2024/02/10 08:05:12;;;;;;;;;;;;;;;3.38;100.00;98118.50;109160;1254;59028;-74
2024/02/10 08:07:43;;;;;;;;;;;;;;;3.44;100.00;98115.10;109414;1253;58829;-74
2024/02/10 08:10:10;;;;;;;;;;;;;;;3.32;100.00;98109.81;109422;1254;72574;-74
2024/02/10 08:12:38;;;;;;;;;;;;;;;3.32;100.00;98109.55;109400;1254;69781;-74
2024/02/10 08:15:07;;;;;;;;;;;;;;;3.39;100.00;98107.48;109392;1254;71137;-76
2024/02/10 08:17:37;;;;;;;;;;;;;;;3.24;100.00;98099.88;109397;1254;59790;-75
2024/02/10 08:20:05;;;;;;;;;;;;;;;3.03;100.00;98100.23;109170;1257;62070;-75
2024/02/10 08:22:35;;;;;;;;;;;;;;;3.28;100.00;98101.21;109132;1254;73902;-74
2024/02/10 08:25:04;;;;;;;;;;;;;;;3.35;100.00;98101.91;109437;1254;67631;-76
2024/02/10 08:27:32;;;;;;;;;;;;;;;3.50;100.00;98101.48;109155;1254;75024;-74
2024/02/10 08:30:00;;;;;;;;;;;;;;;3.57;100.00;98100.60;109234;1254;62021;-75
2024/02/10 08:32:29;;;;;;;;;;;;;;;3.58;100.00;98095.07;109317;1254;59218;-74
2024/02/10 08:34:57;;;;;;;;;;;;;;;3.71;100.00;98096.80;109274;1256;75550;-75
2024/02/10 08:37:29;;;;;;;;;;;;;;;3.69;100.00;98096.71;109282;1254;67890;-75
2024/02/10 08:39:57;;;;;;;;;;;;;;;3.50;100.00;98089.23;109335;1257;71348;-77
2024/02/10 08:42:27;;;;;;;;;;;;;;;3.53;100.00;98095.20;109078;1257;59616;-76
2024/02/10 08:44:55;;;;;;;;;;;;;;;3.73;100.00;98096.56;109375;1254;59996;-77
2024/02/10 08:47:22;;;;;;;;;;;;;;;3.75;100.00;98095.31;109163;1254;73522;-77
2024/02/10 08:49:49;;;;;;;;;;;;;;;3.65;100.00;98092.36;109377;1253;67700;-76
2024/02/10 08:52:19;;;;;;;;;;;;;;;3.46;100.00;98087.05;109116;1254;74098;-75
2024/02/10 08:54:51;;;;;;;;;;;;;;;3.44;100.00;98091.22;109352;1254;58988;-76
2024/02/10 08:57:24;;;;;;;;;;;;;;;3.56;100.00;98093.57;109593;1251;61140;-76
2024/02/10 08:59:52;;;;;;;;;;;;;;;3.73;100.00;98087.91;109610;1251;76030;-76
2024/02/10 09:02:22;;;;;;;;;;;;;;;3.83;100.00;98087.35;109604;1251;69169;-76
2024/02/10 09:04:52;;;;;;;;;;;;;;;3.99;100.00;98090.05;109558;1254;71273;-76
2024/02/10 09:07:20;;;;;;;;;;;;;;;3.87;100.00;98097.74;109655;1253;61002;-75
2024/02/10 09:09:48;;;;;;;;;;;;;;;3.66;100.00;98092.91;109664;1251;59021;-76
2024/02/10 09:12:16;;;;;;;;;;;;;;;3.59;100.00;98093.50;109617;1251;75576;-76
2024/02/10 09:14:46;;;;;;;;;;;;;;;3.19;100.00;98097.40;109636;1251;69313;-76
2024/02/10 09:17:13;;;;;;;;;;;;;;;3.07;100.00;98099.39;109623;1254;71056;-76
2024/02/10 09:19:41;;;;;;;;;;;;;;;2.92;100.00;98099.14;109637;1253;61804;-75
2024/02/10 09:22:09;;;;;;;;;;;;;;;3.18;100.00;98102.48;109651;1254;61967;-73
2024/02/10 09:24:39;;;;;;;;;;;;;;;3.24;100.00;98105.39;109641;1256;75744;-75
2024/02/10 09:27:10;;;;;;;;;;;;;;;3.35;100.00;98107.11;109649;1251;69648;-73
2024/02/10 09:29:38;;;;;;;;;;;;;;;3.33;100.00;98105.02;109622;1251;74830;-73
2024/02/10 09:32:06;;;;;;;;;;;;;;;3.37;100.00;98106.33;109332;1251;61239;-74
2024/02/10 09:34:34;;;;;;;;;;;;;;;3.41;100.00;98107.40;109132;1255;59842;-74
2024/02/10 09:37:01;;;;;;;;;;;;;;;3.39;100.00;98100.11;109299;1254;73774;-73
2024/02/10 09:39:29;;;;;;;;;;;;;;;3.40;100.00;98094.29;109295;1254;66982;-73
2024/02/10 09:42:00;;;;;;;;;;;;;;;3.43;100.00;98095.24;109288;1254;72730;-70
2024/02/10 09:44:32;;;;;;;;;;;;;;;3.43;100.00;98095.17;109252;1257;60079;-72
2024/02/10 09:47:00;;;;;;;;;;;;;;;3.57;100.00;98097.02;109078;1254;60946;-74
2024/02/10 09:49:29;;;;;;;;;;;;;;;3.68;100.00;98094.53;109003;1260;74810;-75
2024/02/10 09:51:58;;;;;;;;;;;;;;;3.61;100.00;98094.01;108242;1261;1002248;-74
2024/02/10 09:54:26;;;;;;;;;;;;;;;3.55;100.00;98091.80;109018;1259;74987;-74
2024/02/10 09:56:55;;;;;;;;;;;;;;;3.55;100.00;98091.23;109066;1259;63209;-71
2024/02/10 09:59:24;;;;;;;;;;;;;;;3.74;100.00;98097.27;108986;1258;61182;-71
2024/02/10 10:01:57;;;;;;;;;;;;;;;3.72;100.00;98093.52;109065;1262;76984;-71
2024/02/10 10:04:25;;;;;;;;;;;;;;;3.71;100.00;98091.55;109034;1260;68779;-71
2024/02/10 10:06:53;;;;;;;;;;;;;;;3.65;100.00;98092.85;109157;1257;71196;-72
2024/02/10 10:09:20;;;;;;;;;;;;;;;3.57;100.00;98087.70;109074;1257;60106;-72
2024/02/10 10:11:49;;;;;;;;;;;;;;;3.72;100.00;98089.91;109026;1260;59040;-72
2024/02/10 10:14:16;;;;;;;;;;;;;;;3.59;100.00;98083.80;108979;1261;74812;-72
2024/02/10 10:16:58;;;;;;;;;;;;;;;3.53;100.00;98079.09;108971;1260;70758;-71
2024/02/10 10:19:26;;;;;;;;;;;;;;;3.65;100.00;98077.83;109011;1260;71484;-71
2024/02/10 10:21:56;;;;;;;;;;;;;;;3.69;100.00;98078.24;109112;1257;61522;-71
2024/02/10 10:24:26;;;;;;;;;;;;;;;3.55;100.00;98072.75;109184;1256;60894;-72
2024/02/10 10:26:53;;;;;;;;;;;;;;;3.63;100.00;98074.34;109235;1257;75288;-71
2024/02/10 10:29:21;;;;;;;;;;;;;;;3.66;100.00;98066.00;109234;1256;68075;-71
2024/02/10 10:31:49;;;;;;;;;;;;;;;3.71;100.00;98067.92;109220;1255;71521;-72
2024/02/10 10:34:19;;;;;;;;;;;;;;;3.73;100.00;98074.00;109160;1260;62191;-73
2024/02/10 10:36:48;;;;;;;;;;;;;;;3.66;100.00;98070.53;109247;1256;62099;-72
2024/02/10 10:39:15;;;;;;;;;;;;;;;3.77;100.00;98075.96;109289;1257;75479;-75
2024/02/10 10:41:44;;;;;;;;;;;;;;;3.81;100.00;98078.35;109146;1257;68547;-74
2024/02/10 10:44:12;;;;;;;;;;;;;;;4.01;100.00;98080.84;109248;1256;72951;-74
2024/02/10 10:46:40;;;;;;;;;;;;;;;4.04;100.00;98081.88;109206;1256;62884;-73
2024/02/10 10:49:09;;;;;;;;;;;;;;;4.00;100.00;98086.67;109107;1256;59036;-73
2024/02/10 10:51:44;;;;;;;;;;;;;;;4.09;100.00;98086.45;109095;1257;75126;-73
2024/02/10 10:54:12;;;;;;;;;;;;;;;4.08;100.00;98087.98;109121;1257;70794;-74
2024/02/10 10:56:39;;;;;;;;;;;;;;;4.18;100.00;98094.67;109109;1257;74213;-71
2024/02/10 10:59:08;;;;;;;;;;;;;;;4.10;100.00;98097.77;109156;1257;61702;-74
2024/02/10 11:01:38;;;;;;;;;;;;;;;4.10;100.00;98098.63;109117;1256;62147;-73
2024/02/10 11:04:10;;;;;;;;;;;;;;;3.96;100.00;98091.45;109027;1257;76978;-73
2024/02/10 11:06:37;;;;;;;;;;;;;;;3.89;100.00;98086.00;109133;1256;70511;-70
2024/02/10 11:09:05;;;;;;;;;;;;;;;3.96;100.00;98080.88;109119;1257;74979;-69
2024/02/10 11:11:39;;;;;;;;;;;;;;;3.86;100.00;98079.39;109107;1257;59402;-70
2024/02/10 11:14:09;;;;;;;;;;;;;;;3.92;100.00;98081.42;109269;1256;60556;-70
2024/02/10 11:16:36;;;;;;;;;;;;;;;3.89;100.00;98086.46;109568;1251;73237;-69
2024/02/10 11:19:08;;;;;;;;;;;;;;;3.95;100.00;98085.69;109647;1251;69311;-70
2024/02/10 11:21:38;;;;;;;;;;;;;;;4.01;100.00;98082.21;109644;1251;74072;-69
2024/02/10 11:24:15;;;;;;;;;;;;;;;3.98;100.00;98082.17;109519;1254;59645;-69
2024/02/10 11:26:44;;;;;;;;;;;;;;;3.91;100.00;98086.92;109434;1253;58978;-71
2024/02/10 11:29:18;;;;;;;;;;;;;;;3.86;100.00;98081.87;109440;1254;74195;-70
2024/02/10 11:31:46;;;;;;;;;;;;;;;3.85;100.00;98080.80;109494;1254;71009;-70
2024/02/10 11:34:19;;;;;;;;;;;;;;;3.76;100.00;98081.36;109411;1254;71933;-71
2024/02/10 11:36:51;;;;;;;;;;;;;;;3.80;100.00;98083.48;109143;1256;60758;-70
2024/02/10 11:39:21;;;;;;;;;;;;;;;3.89;100.00;98086.90;109408;1254;60932;-70
2024/02/10 11:41:53;;;;;;;;;;;;;;;3.85;100.00;98085.94;109421;1254;75759;-69
2024/02/10 11:44:20;;;;;;;;;;;;;;;3.76;100.00;98072.50;109157;1254;71169;-70
2024/02/10 11:46:47;;;;;;;;;;;;;;;3.81;100.00;98070.12;109360;1254;72600;-70
2024/02/10 11:49:15;;;;;;;;;;;;;;;3.86;100.00;98071.35;109351;1254;62982;-71
2024/02/10 11:51:43;;;;;;;;;;;;;;;3.89;100.00;98073.41;109292;1254;62056;-71
2024/02/10 11:54:10;;;;;;;;;;;;;;;3.96;100.00;98072.75;109155;1254;77328;-71
2024/02/10 11:56:38;;;;;;;;;;;;;;;4.03;100.00;98070.45;109665;1251;67318;-71
2024/02/10 11:59:05;;;;;;;;;;;;;;;4.05;100.00;98066.27;109385;1251;72916;-70
2024/02/10 12:01:33;;;;;;;;;;;;;;;4.11;100.00;98068.90;109412;1254;62166;-70
2024/02/10 12:04:04;;;;;;;;;;;;;;;4.05;100.00;98068.66;109637;1251;60811;-70
2024/02/10 12:06:32;;;;;;;;;;;;;;;3.93;100.00;98059.17;109550;1251;76784;-70
2024/02/10 12:09:04;;;;;;;;;;;;;;;3.97;100.00;98065.48;109553;1251;69108;-69
2024/02/10 12:11:32;;;;;;;;;;;;;;;3.93;100.00;98067.77;109559;1252;75035;-70
2024/02/10 12:13:59;;;;;;;;;;;;;;;3.87;100.00;98067.02;109383;1254;61429;-69
2024/02/10 12:16:29;;;;;;;;;;;;;;;3.75;100.00;98063.57;109381;1254;59219;-69
2024/02/10 12:18:59;;;;;;;;;;;;;;;3.80;100.00;98062.68;109132;1254;74953;-70
2024/02/10 12:21:27;;;;;;;;;;;;;;;3.77;100.00;98063.96;109396;1254;70755;-70
2024/02/10 12:23:56;;;;;;;;;;;;;;;3.74;100.00;98068.85;109335;1254;72812;-69
2024/02/10 12:26:23;;;;;;;;;;;;;;;3.69;100.00;98069.43;109319;1254;60854;-69
2024/02/10 12:28:51;;;;;;;;;;;;;;;3.82;100.00;98067.33;109352;1254;59933;-69
2024/02/10 12:31:20;;;;;;;;;;;;;;;3.86;100.00;98063.45;109373;1254;72898;-69
2024/02/10 12:33:50;;;;;;;;;;;;;;;3.92;100.00;98059.48;109323;1254;68408;-69
2024/02/10 12:36:20;;;;;;;;;;;;;;;3.99;100.00;98061.02;109442;1254;74076;-68
2024/02/10 12:38:47;;;;;;;;;;;;;;;3.95;100.00;98056.50;109336;1254;61042;-68
2024/02/10 12:41:16;;;;;;;;;;;;;;;3.84;100.00;98063.32;109367;1254;60845;-68
2024/02/10 12:43:44;;;;;;;;;;;;;;;3.94;100.00;98060.05;109077;1257;74727;-69
2024/02/10 12:46:12;;;;;;;;;;;;;;;3.95;100.00;98056.72;109077;1257;67563;-70